sensor_id;sensor_type;location;lat;lon;timestamp;P1;durP1;ratioP1;P2;durP2;ratioP2
11807;SDS011;5961;42.640;23.380;2023-07-28T00:02:02;3.73;;;2.80;;
11807;SDS011;5961;42.640;23.380;2023-07-28T00:04:29;2.63;;;2.43;;
11807;SDS011;5961;42.640;23.380;2023-07-28T00:06:55;3.80;;;3.13;;
11807;SDS011;5961;42.640;23.380;2023-07-28T00:09:22;3.07;;;2.87;;
11807;SDS011;5961;42.640;23.380;2023-07-28T00:11:49;2.90;;;2.60;;
11807;SDS011;5961;42.640;23.380;2023-07-28T00:14:15;3.20;;;2.93;;
11807;SDS011;5961;42.640;23.380;2023-07-28T00:16:42;3.27;;;2.97;;
11807;SDS011;5961;42.640;23.380;2023-07-28T00:19:10;2.67;;;2.47;;
11807;SDS011;5961;42.640;23.380;2023-07-28T00:21:37;2.73;;;2.53;;
11807;SDS011;5961;42.640;23.380;2023-07-28T00:24:04;2.73;;;2.53;;
11807;SDS011;5961;42.640;23.380;2023-07-28T00:26:31;2.80;;;2.50;;
11807;SDS011;5961;42.640;23.380;2023-07-28T00:28:58;3.20;;;2.90;;
11807;SDS011;5961;42.640;23.380;2023-07-28T00:31:24;3.93;;;3.60;;
11807;SDS011;5961;42.640;23.380;2023-07-28T00:33:51;4.30;;;2.80;;
11807;SDS011;5961;42.640;23.380;2023-07-28T00:36:19;3.00;;;2.80;;
11807;SDS011;5961;42.640;23.380;2023-07-28T00:38:46;2.90;;;2.60;;
11807;SDS011;5961;42.640;23.380;2023-07-28T00:41:13;2.87;;;2.57;;
11807;SDS011;5961;42.640;23.380;2023-07-28T00:43:39;2.43;;;2.33;;
11807;SDS011;5961;42.640;23.380;2023-07-28T00:46:06;3.00;;;2.80;;
11807;SDS011;5961;42.640;23.380;2023-07-28T00:48:34;4.97;;;2.60;;
11807;SDS011;5961;42.640;23.380;2023-07-28T00:51:00;2.70;;;2.50;;
11807;SDS011;5961;42.640;23.380;2023-07-28T00:53:29;2.53;;;2.33;;
11807;SDS011;5961;42.640;23.380;2023-07-28T00:55:56;2.70;;;2.50;;
11807;SDS011;5961;42.640;23.380;2023-07-28T00:58:23;2.80;;;2.60;;
11807;SDS011;5961;42.640;23.380;2023-07-28T01:00:50;2.90;;;2.70;;
11807;SDS011;5961;42.640;23.380;2023-07-28T01:03:17;3.70;;;2.80;;
11807;SDS011;5961;42.640;23.380;2023-07-28T01:05:54;3.40;;;2.60;;
11807;SDS011;5961;42.640;23.380;2023-07-28T01:08:27;3.27;;;2.97;;
11807;SDS011;5961;42.640;23.380;2023-07-28T01:11:00;3.47;;;3.03;;
11807;SDS011;5961;42.640;23.380;2023-07-28T01:13:27;2.87;;;2.67;;
11807;SDS011;5961;42.640;23.380;2023-07-28T01:15:54;3.60;;;3.20;;
11807;SDS011;5961;42.640;23.380;2023-07-28T01:18:21;4.27;;;3.30;;
11807;SDS011;5961;42.640;23.380;2023-07-28T01:20:47;3.20;;;3.00;;
11807;SDS011;5961;42.640;23.380;2023-07-28T01:23:21;3.20;;;3.00;;
11807;SDS011;5961;42.640;23.380;2023-07-28T01:26:01;3.10;;;2.90;;
11807;SDS011;5961;42.640;23.380;2023-07-28T01:28:33;5.30;;;3.27;;
11807;SDS011;5961;42.640;23.380;2023-07-28T01:31:01;3.30;;;3.03;;
11807;SDS011;5961;42.640;23.380;2023-07-28T01:33:29;3.20;;;3.00;;
11807;SDS011;5961;42.640;23.380;2023-07-28T01:35:55;3.80;;;3.50;;
11807;SDS011;5961;42.640;23.380;2023-07-28T01:38:23;3.30;;;3.07;;
11807;SDS011;5961;42.640;23.380;2023-07-28T01:40:50;3.37;;;3.13;;
11807;SDS011;5961;42.640;23.380;2023-07-28T01:43:17;3.50;;;3.30;;
11807;SDS011;5961;42.640;23.380;2023-07-28T01:45:45;3.47;;;3.17;;
11807;SDS011;5961;42.640;23.380;2023-07-28T01:48:12;3.57;;;3.30;;
11807;SDS011;5961;42.640;23.380;2023-07-28T01:50:38;4.07;;;3.43;;
11807;SDS011;5961;42.640;23.380;2023-07-28T01:53:05;3.90;;;3.20;;
11807;SDS011;5961;42.640;23.380;2023-07-28T01:55:32;3.73;;;3.43;;
11807;SDS011;5961;42.640;23.380;2023-07-28T01:57:59;3.97;;;3.40;;
11807;SDS011;5961;42.640;23.380;2023-07-28T02:00:27;3.27;;;3.07;;
11807;SDS011;5961;42.640;23.380;2023-07-28T02:02:56;3.40;;;3.10;;
11807;SDS011;5961;42.640;23.380;2023-07-28T02:05:23;3.93;;;3.47;;
11807;SDS011;5961;42.640;23.380;2023-07-28T02:07:50;4.20;;;3.77;;
11807;SDS011;5961;42.640;23.380;2023-07-28T02:10:17;4.30;;;3.30;;
11807;SDS011;5961;42.640;23.380;2023-07-28T02:12:44;3.40;;;3.20;;
11807;SDS011;5961;42.640;23.380;2023-07-28T02:15:11;3.30;;;3.10;;
11807;SDS011;5961;42.640;23.380;2023-07-28T02:17:38;3.30;;;3.10;;
11807;SDS011;5961;42.640;23.380;2023-07-28T02:20:10;3.77;;;3.20;;
11807;SDS011;5961;42.640;23.380;2023-07-28T02:22:38;3.50;;;3.20;;
11807;SDS011;5961;42.640;23.380;2023-07-28T02:25:05;4.57;;;3.50;;
11807;SDS011;5961;42.640;23.380;2023-07-28T02:27:32;3.67;;;3.37;;
11807;SDS011;5961;42.640;23.380;2023-07-28T02:29:59;3.50;;;3.20;;
11807;SDS011;5961;42.640;23.380;2023-07-28T02:32:25;6.40;;;3.03;;
11807;SDS011;5961;42.640;23.380;2023-07-28T02:34:52;3.40;;;3.10;;
11807;SDS011;5961;42.640;23.380;2023-07-28T02:37:20;3.37;;;3.10;;
11807;SDS011;5961;42.640;23.380;2023-07-28T02:39:47;3.40;;;3.10;;
11807;SDS011;5961;42.640;23.380;2023-07-28T02:42:13;3.70;;;2.80;;
11807;SDS011;5961;42.640;23.380;2023-07-28T02:44:40;3.77;;;3.10;;
11807;SDS011;5961;42.640;23.380;2023-07-28T02:47:07;4.10;;;3.10;;
11807;SDS011;5961;42.640;23.380;2023-07-28T02:49:34;3.30;;;3.07;;
11807;SDS011;5961;42.640;23.380;2023-07-28T02:52:00;4.67;;;3.00;;
11807;SDS011;5961;42.640;23.380;2023-07-28T02:54:29;3.87;;;3.00;;
11807;SDS011;5961;42.640;23.380;2023-07-28T02:56:56;4.27;;;2.97;;
11807;SDS011;5961;42.640;23.380;2023-07-28T02:59:23;3.13;;;2.83;;
11807;SDS011;5961;42.640;23.380;2023-07-28T03:01:49;4.83;;;2.70;;
11807;SDS011;5961;42.640;23.380;2023-07-28T03:04:17;3.10;;;2.90;;
11807;SDS011;5961;42.640;23.380;2023-07-28T03:06:45;3.97;;;2.90;;
11807;SDS011;5961;42.640;23.380;2023-07-28T03:09:11;3.00;;;2.80;;
11807;SDS011;5961;42.640;23.380;2023-07-28T03:11:40;5.00;;;3.00;;
11807;SDS011;5961;42.640;23.380;2023-07-28T03:14:07;3.27;;;3.07;;
11807;SDS011;5961;42.640;23.380;2023-07-28T03:16:34;5.30;;;3.10;;
11807;SDS011;5961;42.640;23.380;2023-07-28T03:19:00;3.73;;;3.10;;
11807;SDS011;5961;42.640;23.380;2023-07-28T03:21:29;3.27;;;2.93;;
11807;SDS011;5961;42.640;23.380;2023-07-28T03:23:56;3.30;;;3.00;;
11807;SDS011;5961;42.640;23.380;2023-07-28T03:26:22;3.37;;;2.73;;
11807;SDS011;5961;42.640;23.380;2023-07-28T03:28:50;3.57;;;2.50;;
11807;SDS011;5961;42.640;23.380;2023-07-28T03:31:17;3.30;;;3.00;;
11807;SDS011;5961;42.640;23.380;2023-07-28T03:33:44;4.87;;;3.30;;
11807;SDS011;5961;42.640;23.380;2023-07-28T03:36:10;3.17;;;2.87;;
11807;SDS011;5961;42.640;23.380;2023-07-28T03:38:37;7.23;;;3.30;;
11807;SDS011;5961;42.640;23.380;2023-07-28T03:41:04;3.33;;;2.97;;
11807;SDS011;5961;42.640;23.380;2023-07-28T03:43:32;4.67;;;3.20;;
11807;SDS011;5961;42.640;23.380;2023-07-28T03:46:00;5.43;;;3.40;;
11807;SDS011;5961;42.640;23.380;2023-07-28T03:48:27;5.13;;;3.90;;
11807;SDS011;5961;42.640;23.380;2023-07-28T03:50:53;5.37;;;3.33;;
11807;SDS011;5961;42.640;23.380;2023-07-28T03:53:20;4.17;;;3.30;;
11807;SDS011;5961;42.640;23.380;2023-07-28T03:55:47;3.57;;;3.20;;
11807;SDS011;5961;42.640;23.380;2023-07-28T03:58:14;6.57;;;3.80;;
11807;SDS011;5961;42.640;23.380;2023-07-28T04:00:41;6.60;;;3.87;;
11807;SDS011;5961;42.640;23.380;2023-07-28T04:03:09;7.77;;;5.40;;
11807;SDS011;5961;42.640;23.380;2023-07-28T04:05:36;7.07;;;3.83;;
11807;SDS011;5961;42.640;23.380;2023-07-28T04:08:02;5.53;;;3.73;;
11807;SDS011;5961;42.640;23.380;2023-07-28T04:10:29;5.73;;;3.50;;
11807;SDS011;5961;42.640;23.380;2023-07-28T04:12:56;6.23;;;4.23;;
11807;SDS011;5961;42.640;23.380;2023-07-28T04:15:23;5.13;;;3.37;;
11807;SDS011;5961;42.640;23.380;2023-07-28T04:17:49;4.70;;;4.23;;
11807;SDS011;5961;42.640;23.380;2023-07-28T04:20:17;7.07;;;4.00;;
11807;SDS011;5961;42.640;23.380;2023-07-28T04:22:44;8.83;;;4.10;;
11807;SDS011;5961;42.640;23.380;2023-07-28T04:25:11;6.83;;;4.07;;
11807;SDS011;5961;42.640;23.380;2023-07-28T04:27:38;4.73;;;4.10;;
11807;SDS011;5961;42.640;23.380;2023-07-28T04:30:05;5.53;;;3.43;;
11807;SDS011;5961;42.640;23.380;2023-07-28T04:32:32;7.77;;;4.30;;
11807;SDS011;5961;42.640;23.380;2023-07-28T04:34:59;4.27;;;3.40;;
11807;SDS011;5961;42.640;23.380;2023-07-28T04:37:27;4.80;;;4.10;;
11807;SDS011;5961;42.640;23.380;2023-07-28T04:39:54;4.83;;;3.83;;
11807;SDS011;5961;42.640;23.380;2023-07-28T04:42:20;5.17;;;3.67;;
11807;SDS011;5961;42.640;23.380;2023-07-28T04:44:47;6.13;;;4.20;;
11807;SDS011;5961;42.640;23.380;2023-07-28T04:47:14;4.93;;;4.20;;
11807;SDS011;5961;42.640;23.380;2023-07-28T04:49:40;5.07;;;4.60;;
11807;SDS011;5961;42.640;23.380;2023-07-28T04:52:07;9.43;;;5.63;;
11807;SDS011;5961;42.640;23.380;2023-07-28T04:54:35;6.23;;;5.10;;
11807;SDS011;5961;42.640;23.380;2023-07-28T04:57:02;5.23;;;4.70;;
11807;SDS011;5961;42.640;23.380;2023-07-28T04:59:29;6.17;;;4.13;;
11807;SDS011;5961;42.640;23.380;2023-07-28T05:01:56;4.53;;;4.10;;
11807;SDS011;5961;42.640;23.380;2023-07-28T05:04:23;4.93;;;4.37;;
11807;SDS011;5961;42.640;23.380;2023-07-28T05:06:49;5.53;;;4.50;;
11807;SDS011;5961;42.640;23.380;2023-07-28T05:09:16;8.43;;;5.33;;
11807;SDS011;5961;42.640;23.380;2023-07-28T05:11:44;5.07;;;4.47;;
11807;SDS011;5961;42.640;23.380;2023-07-28T05:14:11;5.07;;;4.37;;
11807;SDS011;5961;42.640;23.380;2023-07-28T05:16:38;7.07;;;4.50;;
11807;SDS011;5961;42.640;23.380;2023-07-28T05:19:05;5.93;;;4.37;;
11807;SDS011;5961;42.640;23.380;2023-07-28T05:21:32;6.00;;;4.20;;
11807;SDS011;5961;42.640;23.380;2023-07-28T05:23:58;4.50;;;4.10;;
11807;SDS011;5961;42.640;23.380;2023-07-28T05:26:25;5.20;;;4.10;;
11807;SDS011;5961;42.640;23.380;2023-07-28T05:28:53;4.53;;;4.07;;
11807;SDS011;5961;42.640;23.380;2023-07-28T05:31:20;4.90;;;3.83;;
11807;SDS011;5961;42.640;23.380;2023-07-28T05:33:46;4.43;;;3.87;;
11807;SDS011;5961;42.640;23.380;2023-07-28T05:36:14;4.57;;;4.10;;
11807;SDS011;5961;42.640;23.380;2023-07-28T06:59:38;6.20;;;4.50;;
11807;SDS011;5961;42.640;23.380;2023-07-28T07:02:05;6.10;;;4.40;;
11807;SDS011;5961;42.640;23.380;2023-07-28T07:04:32;4.87;;;4.37;;
11807;SDS011;5961;42.640;23.380;2023-07-28T07:06:58;6.30;;;4.40;;
11807;SDS011;5961;42.640;23.380;2023-07-28T07:09:28;5.43;;;4.50;;
11807;SDS011;5961;42.640;23.380;2023-07-28T07:11:55;6.10;;;4.37;;
11807;SDS011;5961;42.640;23.380;2023-07-28T07:14:22;4.43;;;4.03;;
11807;SDS011;5961;42.640;23.380;2023-07-28T07:16:50;6.30;;;4.13;;
11807;SDS011;5961;42.640;23.380;2023-07-28T07:19:17;5.27;;;4.10;;
11807;SDS011;5961;42.640;23.380;2023-07-28T07:21:44;6.73;;;4.13;;
11807;SDS011;5961;42.640;23.380;2023-07-28T07:24:12;8.17;;;4.30;;
11807;SDS011;5961;42.640;23.380;2023-07-28T07:26:39;7.37;;;4.37;;
11807;SDS011;5961;42.640;23.380;2023-07-28T07:29:06;5.10;;;4.30;;
11807;SDS011;5961;42.640;23.380;2023-07-28T07:31:33;4.90;;;4.03;;
11807;SDS011;5961;42.640;23.380;2023-07-28T07:34:01;7.27;;;4.60;;
11807;SDS011;5961;42.640;23.380;2023-07-28T07:36:29;4.87;;;4.33;;
11807;SDS011;5961;42.640;23.380;2023-07-28T07:38:56;6.07;;;4.40;;
11807;SDS011;5961;42.640;23.380;2023-07-28T07:41:33;7.27;;;3.87;;
11807;SDS011;5961;42.640;23.380;2023-07-28T07:44:00;8.33;;;5.13;;
11807;SDS011;5961;42.640;23.380;2023-07-28T07:46:27;5.87;;;3.70;;
11807;SDS011;5961;42.640;23.380;2023-07-28T07:48:54;4.23;;;3.70;;
11807;SDS011;5961;42.640;23.380;2023-07-28T07:51:22;7.03;;;4.20;;
11807;SDS011;5961;42.640;23.380;2023-07-28T07:53:49;8.43;;;4.63;;
11807;SDS011;5961;42.640;23.380;2023-07-28T07:56:15;4.80;;;4.37;;
11807;SDS011;5961;42.640;23.380;2023-07-28T07:58:43;5.57;;;4.80;;
11807;SDS011;5961;42.640;23.380;2023-07-28T08:01:10;6.43;;;4.67;;
11807;SDS011;5961;42.640;23.380;2023-07-28T08:03:36;8.60;;;6.73;;
11807;SDS011;5961;42.640;23.380;2023-07-28T08:06:03;9.10;;;5.00;;
11807;SDS011;5961;42.640;23.380;2023-07-28T08:08:31;6.23;;;4.20;;
11807;SDS011;5961;42.640;23.380;2023-07-28T08:10:58;8.73;;;4.20;;
11807;SDS011;5961;42.640;23.380;2023-07-28T08:13:25;5.73;;;4.03;;
11807;SDS011;5961;42.640;23.380;2023-07-28T08:15:52;4.23;;;3.93;;
11807;SDS011;5961;42.640;23.380;2023-07-28T08:18:19;5.53;;;4.13;;
11807;SDS011;5961;42.640;23.380;2023-07-28T08:20:46;6.30;;;4.20;;
11807;SDS011;5961;42.640;23.380;2023-07-28T08:23:12;4.80;;;4.20;;
11807;SDS011;5961;42.640;23.380;2023-07-28T08:25:40;6.33;;;4.37;;
11807;SDS011;5961;42.640;23.380;2023-07-28T08:28:07;6.30;;;4.95;;
11807;SDS011;5961;42.640;23.380;2023-07-28T08:30:34;3.97;;;3.57;;
11807;SDS011;5961;42.640;23.380;2023-07-28T08:33:01;6.25;;;4.00;;
11807;SDS011;5961;42.640;23.380;2023-07-28T08:35:28;6.83;;;4.07;;
11807;SDS011;5961;42.640;23.380;2023-07-28T08:37:55;5.00;;;3.78;;
11807;SDS011;5961;42.640;23.380;2023-07-28T08:40:22;5.83;;;3.90;;
11807;SDS011;5961;42.640;23.380;2023-07-28T08:42:51;7.43;;;3.90;;
11807;SDS011;5961;42.640;23.380;2023-07-28T08:45:17;8.17;;;4.37;;
11807;SDS011;5961;42.640;23.380;2023-07-28T08:47:45;8.20;;;3.70;;
11807;SDS011;5961;42.640;23.380;2023-07-28T08:50:12;8.80;;;3.67;;
11807;SDS011;5961;42.640;23.380;2023-07-28T08:52:39;5.07;;;3.38;;
11807;SDS011;5961;42.640;23.380;2023-07-28T08:55:06;4.63;;;3.40;;
11807;SDS011;5961;42.640;23.380;2023-07-28T08:57:34;4.03;;;3.60;;
11807;SDS011;5961;42.640;23.380;2023-07-28T09:00:07;7.78;;;3.50;;
11807;SDS011;5961;42.640;23.380;2023-07-28T09:02:38;5.18;;;3.85;;
11807;SDS011;5961;42.640;23.380;2023-07-28T09:05:05;4.00;;;3.70;;
11807;SDS011;5961;42.640;23.380;2023-07-28T09:07:35;5.53;;;3.33;;
11807;SDS011;5961;42.640;23.380;2023-07-28T09:10:02;6.75;;;3.55;;
11807;SDS011;5961;42.640;23.380;2023-07-28T09:12:31;4.00;;;3.65;;
11807;SDS011;5961;42.640;23.380;2023-07-28T09:14:57;5.18;;;3.63;;
11807;SDS011;5961;42.640;23.380;2023-07-28T09:17:26;4.13;;;3.13;;
11807;SDS011;5961;42.640;23.380;2023-07-28T09:19:53;4.70;;;3.60;;
11807;SDS011;5961;42.640;23.380;2023-07-28T09:22:21;4.88;;;4.38;;
11807;SDS011;5961;42.640;23.380;2023-07-28T09:24:49;5.05;;;3.28;;
11807;SDS011;5961;42.640;23.380;2023-07-28T09:27:19;4.22;;;3.53;;
11807;SDS011;5961;42.640;23.380;2023-07-28T09:29:48;5.00;;;3.50;;
11807;SDS011;5961;42.640;23.380;2023-07-28T09:32:16;4.68;;;3.63;;
11807;SDS011;5961;42.640;23.380;2023-07-28T09:34:54;6.55;;;3.97;;
11807;SDS011;5961;42.640;23.380;2023-07-28T09:37:32;5.78;;;3.50;;
11807;SDS011;5961;42.640;23.380;2023-07-28T09:40:00;5.55;;;3.50;;
11807;SDS011;5961;42.640;23.380;2023-07-28T09:42:29;6.00;;;3.60;;
11807;SDS011;5961;42.640;23.380;2023-07-28T09:44:57;4.70;;;3.53;;
11807;SDS011;5961;42.640;23.380;2023-07-28T09:47:23;5.75;;;4.85;;
11807;SDS011;5961;42.640;23.380;2023-07-28T09:49:50;4.88;;;3.88;;
11807;SDS011;5961;42.640;23.380;2023-07-28T09:52:22;5.10;;;3.70;;
11807;SDS011;5961;42.640;23.380;2023-07-28T09:54:53;5.35;;;3.83;;
11807;SDS011;5961;42.640;23.380;2023-07-28T09:57:24;7.00;;;3.67;;
11807;SDS011;5961;42.640;23.380;2023-07-28T09:59:54;4.85;;;3.47;;
11807;SDS011;5961;42.640;23.380;2023-07-28T10:02:22;3.58;;;3.28;;
11807;SDS011;5961;42.640;23.380;2023-07-28T10:04:49;4.03;;;3.63;;
11807;SDS011;5961;42.640;23.380;2023-07-28T10:07:16;3.80;;;3.40;;
11807;SDS011;5961;42.640;23.380;2023-07-28T10:09:44;7.68;;;3.85;;
11807;SDS011;5961;42.640;23.380;2023-07-28T10:12:17;4.15;;;3.53;;
11807;SDS011;5961;42.640;23.380;2023-07-28T10:14:44;6.38;;;3.75;;
11807;SDS011;5961;42.640;23.380;2023-07-28T10:17:15;3.72;;;3.25;;
11807;SDS011;5961;42.640;23.380;2023-07-28T10:19:42;4.95;;;4.10;;
11807;SDS011;5961;42.640;23.380;2023-07-28T10:22:09;4.00;;;3.67;;
11807;SDS011;5961;42.640;23.380;2023-07-28T10:24:51;4.30;;;3.42;;
11807;SDS011;5961;42.640;23.380;2023-07-28T10:27:28;4.35;;;3.70;;
11807;SDS011;5961;42.640;23.380;2023-07-28T10:29:56;3.97;;;3.40;;
11807;SDS011;5961;42.640;23.380;2023-07-28T10:32:27;5.63;;;3.20;;
11807;SDS011;5961;42.640;23.380;2023-07-28T10:35:01;7.70;;;3.63;;
11807;SDS011;5961;42.640;23.380;2023-07-28T10:37:32;4.07;;;3.63;;
11807;SDS011;5961;42.640;23.380;2023-07-28T10:40:22;3.80;;;3.50;;
11807;SDS011;5961;42.640;23.380;2023-07-28T10:42:50;4.43;;;3.83;;
11807;SDS011;5961;42.640;23.380;2023-07-28T10:45:18;3.78;;;3.30;;
11807;SDS011;5961;42.640;23.380;2023-07-28T10:47:45;6.75;;;3.47;;
11807;SDS011;5961;42.640;23.380;2023-07-28T10:50:13;5.47;;;3.60;;
11807;SDS011;5961;42.640;23.380;2023-07-28T10:52:40;6.65;;;5.38;;
11807;SDS011;5961;42.640;23.380;2023-07-28T10:55:11;4.50;;;3.70;;
11807;SDS011;5961;42.640;23.380;2023-07-28T10:57:41;6.78;;;3.58;;
11807;SDS011;5961;42.640;23.380;2023-07-28T11:00:09;3.72;;;3.22;;
11807;SDS011;5961;42.640;23.380;2023-07-28T11:02:38;4.25;;;3.42;;
11807;SDS011;5961;42.640;23.380;2023-07-28T11:05:09;3.78;;;3.47;;
11807;SDS011;5961;42.640;23.380;2023-07-28T11:07:38;3.78;;;3.20;;
11807;SDS011;5961;42.640;23.380;2023-07-28T11:10:07;4.22;;;3.35;;
11807;SDS011;5961;42.640;23.380;2023-07-28T11:12:34;3.78;;;3.03;;
11807;SDS011;5961;42.640;23.380;2023-07-28T11:15:02;5.47;;;3.30;;
11807;SDS011;5961;42.640;23.380;2023-07-28T11:17:30;4.50;;;3.80;;
11807;SDS011;5961;42.640;23.380;2023-07-28T11:19:57;4.00;;;3.50;;
11807;SDS011;5961;42.640;23.380;2023-07-28T11:22:24;7.45;;;3.55;;
11807;SDS011;5961;42.640;23.380;2023-07-28T11:24:51;4.70;;;3.50;;
11807;SDS011;5961;42.640;23.380;2023-07-28T11:27:18;5.57;;;3.65;;
11807;SDS011;5961;42.640;23.380;2023-07-28T11:29:45;4.40;;;3.42;;
11807;SDS011;5961;42.640;23.380;2023-07-28T11:32:16;6.75;;;3.65;;
11807;SDS011;5961;42.640;23.380;2023-07-28T11:34:44;3.80;;;3.33;;
11807;SDS011;5961;42.640;23.380;2023-07-28T11:37:11;5.28;;;3.60;;
11807;SDS011;5961;42.640;23.380;2023-07-28T11:39:38;4.68;;;3.58;;
11807;SDS011;5961;42.640;23.380;2023-07-28T11:42:06;4.35;;;3.85;;
11807;SDS011;5961;42.640;23.380;2023-07-28T11:44:33;7.72;;;3.83;;
11807;SDS011;5961;42.640;23.380;2023-07-28T11:47:00;4.50;;;3.63;;
11807;SDS011;5961;42.640;23.380;2023-07-28T11:49:32;8.23;;;4.10;;
11807;SDS011;5961;42.640;23.380;2023-07-28T11:51:59;8.80;;;3.30;;
11807;SDS011;5961;42.640;23.380;2023-07-28T11:54:26;3.95;;;3.33;;
11807;SDS011;5961;42.640;23.380;2023-07-28T11:56:54;4.55;;;3.60;;
11807;SDS011;5961;42.640;23.380;2023-07-28T11:59:22;6.70;;;3.55;;
11807;SDS011;5961;42.640;23.380;2023-07-28T12:01:53;5.13;;;3.60;;
11807;SDS011;5961;42.640;23.380;2023-07-28T12:04:21;6.90;;;3.95;;
11807;SDS011;5961;42.640;23.380;2023-07-28T12:07:06;5.25;;;3.30;;
11807;SDS011;5961;42.640;23.380;2023-07-28T12:09:47;6.65;;;3.63;;
11807;SDS011;5961;42.640;23.380;2023-07-28T12:12:16;6.75;;;3.60;;
11807;SDS011;5961;42.640;23.380;2023-07-28T12:14:44;6.32;;;3.40;;
11807;SDS011;5961;42.640;23.380;2023-07-28T12:17:12;5.28;;;3.70;;
11807;SDS011;5961;42.640;23.380;2023-07-28T12:19:40;3.92;;;3.40;;
11807;SDS011;5961;42.640;23.380;2023-07-28T12:22:09;5.40;;;3.20;;
11807;SDS011;5961;42.640;23.380;2023-07-28T12:24:36;4.45;;;3.10;;
11807;SDS011;5961;42.640;23.380;2023-07-28T12:27:03;3.47;;;3.22;;
11807;SDS011;5961;42.640;23.380;2023-07-28T12:29:31;4.63;;;3.20;;
11807;SDS011;5961;42.640;23.380;2023-07-28T12:31:57;3.42;;;3.10;;
11807;SDS011;5961;42.640;23.380;2023-07-28T12:34:24;4.45;;;3.38;;
11807;SDS011;5961;42.640;23.380;2023-07-28T12:36:51;6.03;;;3.60;;
11807;SDS011;5961;42.640;23.380;2023-07-28T12:39:19;8.32;;;3.90;;
11807;SDS011;5961;42.640;23.380;2023-07-28T12:41:45;5.47;;;3.80;;
11807;SDS011;5961;42.640;23.380;2023-07-28T12:44:12;4.53;;;3.20;;
11807;SDS011;5961;42.640;23.380;2023-07-28T12:46:39;5.85;;;3.40;;
11807;SDS011;5961;42.640;23.380;2023-07-28T12:49:06;3.95;;;2.97;;
11807;SDS011;5961;42.640;23.380;2023-07-28T12:51:33;3.63;;;3.33;;
11807;SDS011;5961;42.640;23.380;2023-07-28T12:53:59;4.07;;;3.10;;
11807;SDS011;5961;42.640;23.380;2023-07-28T12:56:27;7.63;;;3.60;;
11807;SDS011;5961;42.640;23.380;2023-07-28T12:58:54;5.05;;;3.25;;
11807;SDS011;5961;42.640;23.380;2023-07-28T13:01:21;3.50;;;3.20;;
11807;SDS011;5961;42.640;23.380;2023-07-28T13:03:47;5.93;;;3.10;;
11807;SDS011;5961;42.640;23.380;2023-07-28T13:06:14;6.00;;;2.97;;
11807;SDS011;5961;42.640;23.380;2023-07-28T13:08:41;3.40;;;3.10;;
11807;SDS011;5961;42.640;23.380;2023-07-28T13:11:07;3.40;;;3.10;;
11807;SDS011;5961;42.640;23.380;2023-07-28T13:13:35;3.88;;;2.95;;
11807;SDS011;5961;42.640;23.380;2023-07-28T13:16:02;3.63;;;3.22;;
11807;SDS011;5961;42.640;23.380;2023-07-28T13:18:29;4.03;;;3.13;;
11807;SDS011;5961;42.640;23.380;2023-07-28T13:20:56;3.30;;;3.00;;
11807;SDS011;5961;42.640;23.380;2023-07-28T13:23:22;3.60;;;3.30;;
11807;SDS011;5961;42.640;23.380;2023-07-28T13:25:49;3.47;;;2.95;;
11807;SDS011;5961;42.640;23.380;2023-07-28T13:28:17;3.30;;;3.00;;
11807;SDS011;5961;42.640;23.380;2023-07-28T13:30:48;3.42;;;3.13;;
11807;SDS011;5961;42.640;23.380;2023-07-28T13:33:15;3.25;;;3.05;;
11807;SDS011;5961;42.640;23.380;2023-07-28T13:35:42;3.45;;;3.22;;
11807;SDS011;5961;42.640;23.380;2023-07-28T13:38:08;3.42;;;3.03;;
11807;SDS011;5961;42.640;23.380;2023-07-28T13:40:35;3.10;;;2.90;;
11807;SDS011;5961;42.640;23.380;2023-07-28T13:43:02;3.50;;;3.22;;
11807;SDS011;5961;42.640;23.380;2023-07-28T13:45:28;4.00;;;2.92;;
11807;SDS011;5961;42.640;23.380;2023-07-28T13:47:57;3.03;;;2.83;;
11807;SDS011;5961;42.640;23.380;2023-07-28T13:50:23;3.35;;;3.00;;
11807;SDS011;5961;42.640;23.380;2023-07-28T13:52:50;3.60;;;3.00;;
11807;SDS011;5961;42.640;23.380;2023-07-28T13:55:16;3.10;;;2.90;;
11807;SDS011;5961;42.640;23.380;2023-07-28T13:57:43;3.30;;;2.80;;
11807;SDS011;5961;42.640;23.380;2023-07-28T14:00:11;3.10;;;2.90;;
11807;SDS011;5961;42.640;23.380;2023-07-28T14:02:38;5.78;;;2.80;;
11807;SDS011;5961;42.640;23.380;2023-07-28T14:05:08;3.35;;;2.90;;
11807;SDS011;5961;42.640;23.380;2023-07-28T14:07:34;3.53;;;2.85;;
11807;SDS011;5961;42.640;23.380;2023-07-28T14:10:02;3.20;;;2.88;;
11807;SDS011;5961;42.640;23.380;2023-07-28T14:12:28;2.90;;;2.70;;
11807;SDS011;5961;42.640;23.380;2023-07-28T14:14:55;2.97;;;2.78;;
11807;SDS011;5961;42.640;23.380;2023-07-28T14:17:22;3.22;;;2.88;;
11807;SDS011;5961;42.640;23.380;2023-07-28T14:19:48;3.15;;;2.90;;
11807;SDS011;5961;42.640;23.380;2023-07-28T14:22:16;3.15;;;2.80;;
11807;SDS011;5961;42.640;23.380;2023-07-28T14:24:43;3.20;;;2.90;;
11807;SDS011;5961;42.640;23.380;2023-07-28T14:27:10;3.45;;;2.70;;
11807;SDS011;5961;42.640;23.380;2023-07-28T14:29:36;3.60;;;3.30;;
11807;SDS011;5961;42.640;23.380;2023-07-28T14:32:03;3.08;;;2.88;;
11807;SDS011;5961;42.640;23.380;2023-07-28T14:34:30;3.20;;;3.00;;
11807;SDS011;5961;42.640;23.380;2023-07-28T14:36:57;3.30;;;3.05;;
11807;SDS011;5961;42.640;23.380;2023-07-28T14:39:25;3.20;;;3.00;;
11807;SDS011;5961;42.640;23.380;2023-07-28T14:41:52;5.05;;;3.33;;
11807;SDS011;5961;42.640;23.380;2023-07-28T14:44:18;3.75;;;2.92;;
11807;SDS011;5961;42.640;23.380;2023-07-28T14:46:45;3.55;;;3.25;;
11807;SDS011;5961;42.640;23.380;2023-07-28T14:49:12;3.53;;;3.22;;
11807;SDS011;5961;42.640;23.380;2023-07-28T14:51:39;3.40;;;3.10;;
11807;SDS011;5961;42.640;23.380;2023-07-28T14:54:05;3.28;;;3.00;;
11807;SDS011;5961;42.640;23.380;2023-07-28T14:56:33;3.25;;;2.95;;
11807;SDS011;5961;42.640;23.380;2023-07-28T14:59:00;3.20;;;2.90;;
11807;SDS011;5961;42.640;23.380;2023-07-28T15:01:27;3.83;;;3.53;;
11807;SDS011;5961;42.640;23.380;2023-07-28T15:03:54;3.20;;;2.80;;
11807;SDS011;5961;42.640;23.380;2023-07-28T15:06:21;4.78;;;3.08;;
11807;SDS011;5961;42.640;23.380;2023-07-28T15:08:48;3.10;;;2.90;;
11807;SDS011;5961;42.640;23.380;2023-07-28T15:11:15;3.05;;;2.75;;
11807;SDS011;5961;42.640;23.380;2023-07-28T15:13:44;4.85;;;3.40;;
11807;SDS011;5961;42.640;23.380;2023-07-28T15:16:11;3.53;;;3.22;;
11807;SDS011;5961;42.640;23.380;2023-07-28T15:18:38;3.55;;;2.83;;
11807;SDS011;5961;42.640;23.380;2023-07-28T15:21:05;4.53;;;3.05;;
11807;SDS011;5961;42.640;23.380;2023-07-28T15:23:31;4.25;;;3.15;;
11807;SDS011;5961;42.640;23.380;2023-07-28T15:25:58;3.15;;;2.85;;
11807;SDS011;5961;42.640;23.380;2023-07-28T15:28:25;3.30;;;3.10;;
11807;SDS011;5961;42.640;23.380;2023-07-28T15:30:53;3.10;;;2.90;;
11807;SDS011;5961;42.640;23.380;2023-07-28T15:33:21;3.25;;;2.97;;
11807;SDS011;5961;42.640;23.380;2023-07-28T15:35:48;3.70;;;3.03;;
11807;SDS011;5961;42.640;23.380;2023-07-28T15:38:15;4.38;;;3.30;;
11807;SDS011;5961;42.640;23.380;2023-07-28T15:40:42;3.50;;;3.20;;
11807;SDS011;5961;42.640;23.380;2023-07-28T15:43:09;3.90;;;3.13;;
11807;SDS011;5961;42.640;23.380;2023-07-28T15:45:35;4.38;;;3.40;;
11807;SDS011;5961;42.640;23.380;2023-07-28T15:48:03;3.20;;;2.90;;
11807;SDS011;5961;42.640;23.380;2023-07-28T15:50:30;5.50;;;3.10;;
11807;SDS011;5961;42.640;23.380;2023-07-28T15:52:57;3.20;;;2.78;;
11807;SDS011;5961;42.640;23.380;2023-07-28T15:55:23;3.53;;;3.00;;
11807;SDS011;5961;42.640;23.380;2023-07-28T15:57:50;6.80;;;3.20;;
11807;SDS011;5961;42.640;23.380;2023-07-28T16:00:16;3.20;;;2.90;;
11807;SDS011;5961;42.640;23.380;2023-07-28T16:02:43;4.88;;;3.08;;
11807;SDS011;5961;42.640;23.380;2023-07-28T16:05:13;3.72;;;2.95;;
11807;SDS011;5961;42.640;23.380;2023-07-28T16:07:39;4.57;;;2.80;;
11807;SDS011;5961;42.640;23.380;2023-07-28T16:10:07;3.10;;;2.80;;
11807;SDS011;5961;42.640;23.380;2023-07-28T16:12:35;3.17;;;2.88;;